createdAt,value
2022-12-23T00:00:42.094Z,-0.10
2022-12-23T00:03:09.251Z,-0.50
2022-12-23T00:05:38.256Z,-0.53
2022-12-23T00:08:06.299Z,-0.51
2022-12-23T00:10:33.455Z,-0.57
2022-12-23T00:13:18.894Z,-0.15
2022-12-23T00:15:45.633Z,0.02
2022-12-23T00:18:12.463Z,-0.12
2022-12-23T00:20:39.234Z,0.35
2022-12-23T00:23:06.727Z,0.46
2022-12-23T00:25:41.175Z,0.25
2022-12-23T00:28:16.000Z,0.61
2022-12-23T00:31:04.572Z,-0.01
2022-12-23T00:33:44.805Z,-0.10
2022-12-23T00:36:15.420Z,0.05
2022-12-23T00:39:00.813Z,-0.12
2022-12-23T00:41:46.171Z,-0.18
2022-12-23T00:44:13.493Z,0.14
2022-12-23T00:46:40.242Z,0.32
2022-12-23T00:49:26.141Z,-0.26
2022-12-23T00:51:53.272Z,-0.52
2022-12-23T00:54:20.500Z,-0.55
2022-12-23T00:56:47.259Z,-0.29
2022-12-23T00:59:19.159Z,-0.64
2022-12-23T01:02:08.225Z,-0.56
2022-12-23T01:05:00.243Z,-0.49
2022-12-23T01:07:27.328Z,-0.18
2022-12-23T01:09:54.137Z,-0.19
2022-12-23T01:12:21.259Z,-0.08
2022-12-23T01:14:48.560Z,-0.40
2022-12-23T01:17:15.351Z,-0.71
2022-12-23T01:19:42.303Z,-0.62
2022-12-23T01:22:09.204Z,-0.47
2022-12-23T01:24:35.959Z,-0.54
2022-12-23T01:27:02.777Z,-0.62
2022-12-23T01:29:30.013Z,-0.32
2022-12-23T01:31:56.883Z,-0.54
2022-12-23T01:34:23.651Z,-0.94
2022-12-23T01:36:50.560Z,-0.81
2022-12-23T01:39:17.515Z,-0.67
2022-12-23T01:42:02.845Z,-0.17
2022-12-23T01:44:55.308Z,-0.31
2022-12-23T01:47:25.132Z,-0.53
2022-12-23T01:50:19.936Z,-0.76
2022-12-23T01:53:07.353Z,-0.53
2022-12-23T01:55:54.579Z,-0.68
2022-12-23T01:58:25.959Z,-0.49
2022-12-23T02:01:26.043Z,-0.66
2022-12-23T02:03:59.256Z,-1.13
2022-12-23T02:06:48.025Z,-0.82
2022-12-23T02:09:40.331Z,-0.90
2022-12-23T02:12:22.347Z,-0.86
2022-12-23T02:15:13.882Z,-0.19
2022-12-23T02:18:04.883Z,-0.54
2022-12-23T02:21:19.963Z,-0.61
2022-12-23T02:24:04.978Z,-0.88
2022-12-23T02:27:09.748Z,-0.73
2022-12-23T02:29:42.603Z,-0.50
2022-12-23T02:32:12.258Z,-0.73
2022-12-23T02:34:52.115Z,-0.56
2022-12-23T02:37:44.224Z,-0.82
2022-12-23T02:40:30.449Z,-0.72
2022-12-23T02:43:20.550Z,-0.99
2022-12-23T02:46:17.296Z,-0.71
2022-12-23T02:48:57.005Z,-1.02
2022-12-23T02:51:31.034Z,-1.22
2022-12-23T02:54:03.135Z,-1.39
2022-12-23T02:56:33.429Z,-1.41
2022-12-23T02:59:05.736Z,-1.28
2022-12-23T03:01:33.974Z,-1.40
2022-12-23T03:04:01.040Z,-1.38
2022-12-23T03:06:36.598Z,-1.35
2022-12-23T03:09:03.470Z,-1.65
2022-12-23T03:12:11.949Z,-1.33
2022-12-23T03:15:05.255Z,-1.32
2022-12-23T03:17:57.722Z,-1.30
2022-12-23T03:20:33.137Z,-0.89
2022-12-23T03:23:27.597Z,-1.05
2022-12-23T03:26:02.128Z,-1.34
2022-12-23T03:28:36.957Z,-1.17
2022-12-23T03:31:09.892Z,-1.36
2022-12-23T03:33:42.629Z,-1.17
2022-12-23T03:36:24.562Z,-1.39
2022-12-23T03:38:55.197Z,-1.12
2022-12-23T03:41:33.279Z,-1.23
2022-12-23T03:44:29.417Z,-1.61
2022-12-23T03:47:15.309Z,-1.71
2022-12-23T03:50:00.675Z,-1.20
2022-12-23T03:52:46.104Z,-1.26
2022-12-23T03:55:20.131Z,-1.53
2022-12-23T03:58:00.855Z,-1.25
2022-12-23T04:00:34.252Z,-1.50
2022-12-23T04:03:10.512Z,-1.58
2022-12-23T04:05:40.730Z,-1.68
2022-12-23T04:08:25.661Z,-1.57
2022-12-23T04:10:53.478Z,-1.55
2022-12-23T04:13:20.302Z,-1.30
2022-12-23T04:15:47.247Z,-1.10
2022-12-23T04:18:14.462Z,-1.43
2022-12-23T04:20:41.080Z,-1.83
2022-12-23T04:23:07.871Z,-1.94
2022-12-23T04:25:34.741Z,-1.55
2022-12-23T04:28:01.442Z,-1.29
2022-12-23T04:30:34.004Z,-1.22
2022-12-23T04:33:02.555Z,-1.60
2022-12-23T04:35:29.647Z,-1.32
2022-12-23T04:37:56.673Z,-1.89
2022-12-23T04:40:23.544Z,-1.59
2022-12-23T04:42:50.215Z,-1.97
2022-12-23T04:45:16.976Z,-1.22
2022-12-23T04:47:43.780Z,-1.30
2022-12-23T04:50:14.795Z,-1.47
2022-12-23T04:52:42.315Z,-1.49
2022-12-23T04:55:09.677Z,-1.16
2022-12-23T04:57:36.410Z,-1.62
2022-12-23T05:00:04.912Z,-1.46
2022-12-23T05:02:31.762Z,-1.65
2022-12-23T05:04:58.577Z,-1.82
2022-12-23T05:07:25.474Z,-1.93
2022-12-23T05:09:52.583Z,-1.56
2022-12-23T05:12:19.381Z,-1.80
2022-12-23T05:14:46.325Z,-1.69
2022-12-23T05:17:13.132Z,-1.71
2022-12-23T05:19:39.839Z,-2.02
2022-12-23T05:22:06.593Z,-2.19
2022-12-23T05:24:33.512Z,-2.05
2022-12-23T05:27:00.720Z,-2.19
2022-12-23T05:29:29.217Z,-1.75
2022-12-23T05:31:56.138Z,-1.61
2022-12-23T05:34:22.925Z,-1.67
2022-12-23T05:36:49.840Z,-1.99
2022-12-23T05:39:17.008Z,-2.35
2022-12-23T05:41:43.814Z,-2.03
2022-12-23T05:44:10.555Z,-2.33
2022-12-23T05:46:37.509Z,-1.98
2022-12-23T05:49:04.259Z,-1.88
2022-12-23T05:51:31.020Z,-1.66
2022-12-23T05:53:57.797Z,-1.40
2022-12-23T05:56:24.702Z,-1.44
2022-12-23T05:58:51.451Z,-1.76
2022-12-23T06:01:18.700Z,-1.94
2022-12-23T06:03:45.416Z,-1.66
2022-12-23T06:06:13.175Z,-1.72
2022-12-23T06:08:40.031Z,-1.32
2022-12-23T06:11:07.077Z,-0.91
2022-12-23T06:13:33.863Z,-1.48
2022-12-23T06:16:00.730Z,-1.79
2022-12-23T06:18:27.493Z,-1.18
2022-12-23T06:20:54.243Z,-0.92
2022-12-23T06:23:21.014Z,-1.10
2022-12-23T06:25:47.712Z,-0.43
2022-12-23T06:28:14.432Z,-0.05
2022-12-23T06:30:41.192Z,0.09
2022-12-23T06:33:07.863Z,0.91
2022-12-23T06:35:34.580Z,0.73
2022-12-23T06:38:01.269Z,0.99
2022-12-23T06:40:29.322Z,1.27
2022-12-23T06:42:56.107Z,1.44
2022-12-23T06:45:22.994Z,1.36
2022-12-23T06:47:49.856Z,1.61
2022-12-23T06:50:16.591Z,1.22
2022-12-23T06:52:43.682Z,2.20
2022-12-23T06:55:10.354Z,2.83
2022-12-23T06:57:37.416Z,1.73
2022-12-23T07:00:08.806Z,1.37
2022-12-23T07:02:35.680Z,2.32
2022-12-23T07:05:02.469Z,1.01
2022-12-23T07:07:29.358Z,1.40
2022-12-23T07:09:56.116Z,1.36
2022-12-23T07:12:22.869Z,0.71
2022-12-23T07:14:49.671Z,0.79
2022-12-23T07:17:16.617Z,1.68
2022-12-23T07:19:43.416Z,1.90
2022-12-23T07:22:13.050Z,1.66
2022-12-23T07:24:39.727Z,0.88
2022-12-23T07:27:06.498Z,0.80
2022-12-23T07:29:33.321Z,1.05
2022-12-23T07:32:02.125Z,0.72
2022-12-23T07:34:28.784Z,0.54
2022-12-23T07:36:56.124Z,0.52
2022-12-23T07:39:22.934Z,0.46
2022-12-23T07:41:55.497Z,0.77
2022-12-23T07:44:30.663Z,1.08
2022-12-23T07:46:57.365Z,0.68
2022-12-23T07:49:23.957Z,0.78
2022-12-23T07:51:50.723Z,0.57
2022-12-23T07:54:17.480Z,0.70
2022-12-23T07:56:44.206Z,0.81
2022-12-23T07:59:10.953Z,0.74
2022-12-23T08:01:37.895Z,0.99
2022-12-23T08:04:04.735Z,0.50
2022-12-23T08:06:32.496Z,0.51
2022-12-23T08:08:59.141Z,1.04
2022-12-23T08:11:25.819Z,2.11
2022-12-23T08:13:53.132Z,1.71
2022-12-23T08:16:19.951Z,1.67
2022-12-23T08:18:46.782Z,1.91
2022-12-23T08:21:15.960Z,2.28
2022-12-23T08:23:43.738Z,3.15
2022-12-23T08:26:16.886Z,2.59
2022-12-23T08:28:44.719Z,2.15
2022-12-23T08:31:26.529Z,2.48
2022-12-23T08:33:56.010Z,1.88
2022-12-23T08:36:25.820Z,2.41
2022-12-23T08:38:54.798Z,2.50
2022-12-23T08:41:35.890Z,2.29
2022-12-23T08:44:03.487Z,2.67
2022-12-23T08:46:30.395Z,2.65
2022-12-23T08:48:57.295Z,3.84
2022-12-23T08:51:25.639Z,3.73
2022-12-23T08:54:01.054Z,4.01
2022-12-23T08:56:32.444Z,4.37
2022-12-23T08:58:59.149Z,3.83
2022-12-23T09:01:30.119Z,4.13
2022-12-23T09:03:57.313Z,4.27
2022-12-23T09:06:29.456Z,4.74
2022-12-23T09:08:58.128Z,5.09
2022-12-23T09:11:28.357Z,4.47
2022-12-23T09:13:56.092Z,4.30
2022-12-23T09:16:23.641Z,4.80
2022-12-23T09:18:50.685Z,5.21
2022-12-23T09:21:22.411Z,4.97
2022-12-23T09:23:49.492Z,4.64
2022-12-23T09:26:25.219Z,5.12
2022-12-23T09:28:52.578Z,5.25
2022-12-23T09:31:21.877Z,5.44
2022-12-23T09:33:51.000Z,5.45
2022-12-23T09:36:18.193Z,5.30
2022-12-23T09:38:45.364Z,5.57
2022-12-23T09:41:40.128Z,5.59
2022-12-23T09:44:12.886Z,5.34
2022-12-23T09:46:48.334Z,5.37
2022-12-23T09:49:17.613Z,6.22
2022-12-23T09:51:45.813Z,5.70
2022-12-23T09:54:22.911Z,5.89
2022-12-23T09:57:18.813Z,5.81
2022-12-23T10:00:12.503Z,5.93
2022-12-23T10:03:16.425Z,5.91
2022-12-23T10:06:00.702Z,6.45
2022-12-23T10:08:27.494Z,6.21
2022-12-23T10:11:07.884Z,6.61
2022-12-23T10:13:37.561Z,6.08
2022-12-23T10:16:09.729Z,6.29
2022-12-23T10:19:00.157Z,5.94
2022-12-23T10:21:46.935Z,6.01
2022-12-23T10:24:23.462Z,6.18
2022-12-23T10:26:55.111Z,6.65
2022-12-23T10:29:27.787Z,6.94
2022-12-23T10:32:03.781Z,6.83
2022-12-23T10:34:57.010Z,7.02
2022-12-23T10:37:38.823Z,6.79
2022-12-23T10:40:22.817Z,6.76
2022-12-23T10:42:58.533Z,6.57
2022-12-23T10:46:03.934Z,6.72
2022-12-23T10:48:56.378Z,6.31
2022-12-23T10:51:34.171Z,6.59
2022-12-23T10:54:15.037Z,6.49
2022-12-23T10:56:42.642Z,6.57
2022-12-23T10:59:14.310Z,6.80
2022-12-23T11:01:44.006Z,7.09
2022-12-23T11:04:17.297Z,6.53
2022-12-23T11:06:46.900Z,6.72
2022-12-23T11:09:19.317Z,6.95
2022-12-23T11:12:01.379Z,6.77
2022-12-23T11:14:32.397Z,7.21
2022-12-23T11:16:59.403Z,7.40
2022-12-23T11:19:29.344Z,7.55
2022-12-23T11:22:01.031Z,7.31
2022-12-23T11:24:38.036Z,7.68
2022-12-23T11:27:12.603Z,7.79
2022-12-23T11:29:47.262Z,7.63
2022-12-23T11:32:24.610Z,8.03
2022-12-23T11:34:52.228Z,7.90
2022-12-23T11:37:36.201Z,8.16
2022-12-23T11:40:15.392Z,7.98
2022-12-23T11:42:42.960Z,7.71
2022-12-23T11:45:09.943Z,7.61
2022-12-23T11:47:41.530Z,7.77
2022-12-23T11:50:20.737Z,7.40
2022-12-23T11:52:52.600Z,7.15
2022-12-23T11:55:29.850Z,7.26
2022-12-23T11:57:57.103Z,7.51
2022-12-23T12:00:34.789Z,7.50
2022-12-23T12:03:04.675Z,7.45
2022-12-23T12:05:40.968Z,7.57
2022-12-23T12:08:13.930Z,7.47
2022-12-23T12:10:42.329Z,7.42
2022-12-23T12:13:24.181Z,7.61
2022-12-23T12:16:12.691Z,7.71
2022-12-23T12:18:42.918Z,7.55
2022-12-23T12:21:18.987Z,7.74
2022-12-23T12:24:17.344Z,7.94
2022-12-23T12:26:51.421Z,8.01
2022-12-23T12:29:28.941Z,7.83
2022-12-23T12:31:58.796Z,7.73
2022-12-23T12:34:58.201Z,7.77
2022-12-23T12:37:48.339Z,7.93
2022-12-23T12:40:25.061Z,8.18
2022-12-23T12:43:34.967Z,8.18
2022-12-23T12:46:27.147Z,8.55
2022-12-23T12:49:40.780Z,8.74
2022-12-23T12:52:19.506Z,8.84
2022-12-23T12:55:01.971Z,8.30
2022-12-23T12:57:29.754Z,8.30
2022-12-23T13:00:05.510Z,8.34
2022-12-23T13:02:53.989Z,8.42
2022-12-23T13:05:36.153Z,8.39
2022-12-23T13:08:51.171Z,8.55
2022-12-23T13:11:45.316Z,8.62
2022-12-23T13:14:43.895Z,8.59
2022-12-23T13:17:28.843Z,8.41
2022-12-23T13:20:29.216Z,8.02
2022-12-23T13:23:27.039Z,7.73
2022-12-23T13:26:00.642Z,7.58
2022-12-23T13:28:51.393Z,7.48
2022-12-23T13:31:42.378Z,7.53
2022-12-23T13:34:45.580Z,7.58
2022-12-23T13:37:39.537Z,7.45
2022-12-23T13:40:34.155Z,7.19
2022-12-23T13:43:22.266Z,7.09
2022-12-23T13:45:51.938Z,7.32
2022-12-23T13:48:27.446Z,7.36
2022-12-23T13:51:07.037Z,7.28
2022-12-23T13:53:58.042Z,7.05
2022-12-23T13:57:10.623Z,7.29
2022-12-23T14:00:20.313Z,7.26
2022-12-23T14:03:01.953Z,7.38
2022-12-23T14:05:33.370Z,7.27
2022-12-23T14:08:05.878Z,7.08
2022-12-23T14:10:33.194Z,7.00
2022-12-23T14:13:22.986Z,7.02
2022-12-23T14:16:12.920Z,6.87
2022-12-23T14:18:45.723Z,6.68
2022-12-23T14:21:21.552Z,6.71
2022-12-23T14:24:13.583Z,6.90
2022-12-23T14:27:03.110Z,6.94
2022-12-23T14:29:38.851Z,6.76
2022-12-23T14:32:34.510Z,6.88
2022-12-23T14:35:27.227Z,6.78
2022-12-23T14:38:15.119Z,6.90
2022-12-23T14:40:41.900Z,6.65
2022-12-23T14:43:25.532Z,6.57
2022-12-23T14:46:05.212Z,6.40
2022-12-23T14:48:47.898Z,6.22
2022-12-23T14:51:14.631Z,6.05
2022-12-23T14:53:57.081Z,5.88
2022-12-23T14:56:32.357Z,5.99
2022-12-23T14:59:26.934Z,5.82
2022-12-23T15:02:22.663Z,5.82
2022-12-23T15:04:58.054Z,5.69
2022-12-23T15:07:33.130Z,5.60
2022-12-23T15:10:02.370Z,5.63
2022-12-23T15:12:37.160Z,5.56
2022-12-23T15:15:07.048Z,5.62
2022-12-23T15:17:36.569Z,5.49
2022-12-23T15:20:20.029Z,5.58
2022-12-23T15:22:48.420Z,5.41
2022-12-23T15:25:24.113Z,5.40
2022-12-23T15:27:56.004Z,5.11
2022-12-23T15:30:30.508Z,5.20
2022-12-23T15:33:21.863Z,5.25
2022-12-23T15:35:53.688Z,5.36
2022-12-23T15:38:23.881Z,5.98
2022-12-23T15:40:59.935Z,5.43
2022-12-23T15:43:27.368Z,5.24
2022-12-23T15:46:09.784Z,5.17
2022-12-23T15:48:38.256Z,5.21
2022-12-23T15:54:32.440Z,4.91
2022-12-23T15:57:05.802Z,5.04
2022-12-23T15:59:39.147Z,5.16
2022-12-23T16:05:37.709Z,5.04
2022-12-23T16:08:16.504Z,5.06
2022-12-23T16:11:16.043Z,4.80
2022-12-23T16:13:58.480Z,4.89
2022-12-23T16:16:43.478Z,4.67
2022-12-23T16:22:22.619Z,4.44
2022-12-23T16:25:09.384Z,4.50
2022-12-23T16:27:47.837Z,4.72
2022-12-23T16:30:24.777Z,4.74
2022-12-23T16:33:04.613Z,4.34
2022-12-23T16:35:42.044Z,4.22
2022-12-23T16:38:26.111Z,4.57
2022-12-23T16:40:55.840Z,4.69
2022-12-23T16:43:24.542Z,4.44
2022-12-23T16:45:55.356Z,4.53
2022-12-23T16:51:22.114Z,4.64
2022-12-23T16:53:50.258Z,4.57
2022-12-23T16:56:20.258Z,4.51
2022-12-23T16:58:50.736Z,4.43
2022-12-23T17:01:27.850Z,4.12
2022-12-23T17:03:56.052Z,4.17
2022-12-23T17:06:23.656Z,4.22
2022-12-23T17:08:51.236Z,4.08
2022-12-23T17:11:23.456Z,4.17
2022-12-23T17:13:50.636Z,4.22
2022-12-23T17:16:25.863Z,4.24
2022-12-23T17:18:53.507Z,4.16
2022-12-23T17:21:26.877Z,4.22
2022-12-23T17:23:57.164Z,4.18
2022-12-23T17:26:24.156Z,3.95
2022-12-23T17:28:54.488Z,3.96
2022-12-23T17:31:27.016Z,4.09
2022-12-23T17:33:54.641Z,4.14
2022-12-23T17:36:28.015Z,4.17
2022-12-23T17:38:55.006Z,4.13
2022-12-23T17:41:32.230Z,3.95
2022-12-23T17:44:00.091Z,4.06
2022-12-23T17:46:41.085Z,3.90
2022-12-23T17:49:08.933Z,3.85
2022-12-23T17:51:36.139Z,3.87
2022-12-23T17:54:04.757Z,3.90
2022-12-23T17:56:31.655Z,3.71
2022-12-23T17:58:58.918Z,3.77
2022-12-23T18:01:28.414Z,3.82
2022-12-23T18:03:56.645Z,3.90
2022-12-23T18:06:25.321Z,3.88
2022-12-23T18:08:52.478Z,3.82
2022-12-23T18:11:27.024Z,3.85
2022-12-23T18:14:27.259Z,3.65
2022-12-23T18:17:06.362Z,3.74
2022-12-23T18:19:33.408Z,3.62
2022-12-23T18:22:00.209Z,3.81
2022-12-23T18:24:28.488Z,3.62
2022-12-23T18:26:55.387Z,3.74
2022-12-23T18:29:22.223Z,3.61
2022-12-23T18:31:51.933Z,3.52
2022-12-23T18:34:20.033Z,3.43
2022-12-23T18:36:48.501Z,3.45
2022-12-23T18:39:15.692Z,3.39
2022-12-23T18:41:43.023Z,3.63
2022-12-23T18:44:21.170Z,3.43
2022-12-23T18:46:49.300Z,3.47
2022-12-23T18:49:16.216Z,3.36
2022-12-23T18:51:43.378Z,3.09
2022-12-23T18:54:15.125Z,3.21
2022-12-23T18:56:42.164Z,3.17
2022-12-23T18:59:21.423Z,3.18
2022-12-23T19:01:54.605Z,2.83
2022-12-23T19:04:21.558Z,2.72
2022-12-23T19:06:51.041Z,2.81
2022-12-23T19:09:23.353Z,2.82
2022-12-23T19:11:52.250Z,2.70
2022-12-23T19:14:19.064Z,2.65
2022-12-23T19:16:51.273Z,2.81
2022-12-23T19:19:19.516Z,2.67
2022-12-23T19:21:46.771Z,2.79
2022-12-23T19:24:14.131Z,2.89
2022-12-23T19:26:40.928Z,2.49
2022-12-23T19:29:08.840Z,2.54
2022-12-23T19:31:35.652Z,2.98
2022-12-23T19:34:02.464Z,2.95
2022-12-23T19:36:29.332Z,3.00
2022-12-23T19:38:57.800Z,2.94
2022-12-23T19:41:25.907Z,2.71
2022-12-23T19:43:52.910Z,2.57
2022-12-23T19:46:19.805Z,2.71
2022-12-23T19:48:52.581Z,2.90
2022-12-23T19:51:19.731Z,2.90
2022-12-23T19:53:51.026Z,2.96
2022-12-23T19:56:22.846Z,2.93
2022-12-23T19:58:50.426Z,3.10
2022-12-23T20:01:24.438Z,3.03
2022-12-23T20:03:53.029Z,2.54
2022-12-23T20:06:27.050Z,2.35
2022-12-23T20:08:59.965Z,2.38
2022-12-23T20:11:30.931Z,2.09
2022-12-23T20:13:58.545Z,1.80
2022-12-23T20:16:26.038Z,1.73
2022-12-23T20:18:54.890Z,2.12
2022-12-23T20:21:21.747Z,2.09
2022-12-23T20:23:49.230Z,1.78
2022-12-23T20:26:18.608Z,1.88
2022-12-23T20:28:45.853Z,1.85
2022-12-23T20:31:19.396Z,1.85
2022-12-23T20:33:47.241Z,1.92
2022-12-23T20:36:16.240Z,1.89
2022-12-23T20:38:45.662Z,1.99
2022-12-23T20:41:19.866Z,1.77
2022-12-23T20:44:02.741Z,1.73
2022-12-23T20:46:34.196Z,1.92
2022-12-23T20:49:03.586Z,1.76
2022-12-23T20:51:30.560Z,2.03
2022-12-23T20:54:01.925Z,1.76
2022-12-23T20:56:30.508Z,1.56
2022-12-23T20:58:59.257Z,1.56
2022-12-23T21:01:31.057Z,1.64
2022-12-23T21:04:00.416Z,1.63
2022-12-23T21:06:29.261Z,1.47
2022-12-23T21:08:58.364Z,1.40
2022-12-23T21:11:28.662Z,1.66
2022-12-23T21:13:57.762Z,2.12
2022-12-23T21:16:26.819Z,1.56
2022-12-23T21:18:53.748Z,1.43
2022-12-23T21:21:23.622Z,1.41
2022-12-23T21:23:50.813Z,1.34
2022-12-23T21:26:19.968Z,1.47
2022-12-23T21:28:48.805Z,1.43
2022-12-23T21:31:20.389Z,1.64
2022-12-23T21:33:48.331Z,1.89
2022-12-23T21:36:20.999Z,1.92
2022-12-23T21:38:48.751Z,1.71
2022-12-23T21:41:18.774Z,1.55
2022-12-23T21:43:48.904Z,1.44
2022-12-23T21:46:17.727Z,0.99
2022-12-23T21:48:45.126Z,1.80
2022-12-23T21:51:21.871Z,1.46
2022-12-23T21:53:50.943Z,1.29
2022-12-23T21:56:19.933Z,1.21
2022-12-23T21:58:47.487Z,1.23
2022-12-23T22:01:19.621Z,1.26
2022-12-23T22:03:48.662Z,1.10
2022-12-23T22:06:18.151Z,1.04
2022-12-23T22:08:45.327Z,1.35
2022-12-23T22:11:24.918Z,1.30
2022-12-23T22:13:51.982Z,1.60
2022-12-23T22:16:21.649Z,1.32
2022-12-23T22:18:50.069Z,0.92
2022-12-23T22:21:19.767Z,0.72
2022-12-23T22:23:47.636Z,0.68
2022-12-23T22:26:24.067Z,0.86
2022-12-23T22:28:52.301Z,0.87
2022-12-23T22:31:31.296Z,1.13
2022-12-23T22:33:58.907Z,1.25
2022-12-23T22:36:26.358Z,1.27
2022-12-23T22:38:55.505Z,0.75
2022-12-23T22:41:23.200Z,0.80
2022-12-23T22:43:50.138Z,0.94
2022-12-23T22:46:18.506Z,0.54
2022-12-23T22:48:46.109Z,0.66
2022-12-23T22:51:24.859Z,0.72
2022-12-23T22:53:51.745Z,0.98
2022-12-23T22:56:20.801Z,1.11
2022-12-23T22:58:47.580Z,0.95
2022-12-23T23:01:35.333Z,1.16
2022-12-23T23:04:03.799Z,1.31
2022-12-23T23:06:38.011Z,0.86
2022-12-23T23:09:12.857Z,1.05
2022-12-23T23:11:40.226Z,0.86
2022-12-23T23:14:07.520Z,0.40
2022-12-23T23:16:34.554Z,0.53
2022-12-23T23:19:03.594Z,0.32
2022-12-23T23:21:30.343Z,0.41
2022-12-23T23:23:57.420Z,0.73
2022-12-23T23:26:27.633Z,0.96
2022-12-23T23:28:55.916Z,1.05
2022-12-23T23:34:10.258Z,0.94
2022-12-23T23:36:37.203Z,0.91
2022-12-23T23:39:04.234Z,1.31
2022-12-23T23:41:31.288Z,1.18
2022-12-23T23:43:58.050Z,0.78
2022-12-23T23:46:24.830Z,0.37
2022-12-23T23:48:51.659Z,0.50
2022-12-23T23:51:18.536Z,0.33
2022-12-23T23:53:45.224Z,0.57
2022-12-23T23:56:11.890Z,0.72
2022-12-23T23:58:38.659Z,0.62
